sensor_id;sensor_type;location;lat;lon;timestamp;pressure;altitude;pressure_sealevel;temperature;humidity
3150;BME280;32503;47.748;8.960;2023-02-13T00:00:04;98683.06;;;4.56;67.56
3150;BME280;32503;47.748;8.960;2023-02-13T00:02:31;98698.56;;;4.69;67.46
3150;BME280;32503;47.748;8.960;2023-02-13T00:04:58;98699.38;;;4.70;67.28
3150;BME280;32503;47.748;8.960;2023-02-13T00:07:25;98703.66;;;4.66;67.02
3150;BME280;32503;47.748;8.960;2023-02-13T00:09:52;98700.16;;;4.70;66.59
3150;BME280;32503;47.748;8.960;2023-02-13T00:12:21;98696.19;;;4.58;66.22
3150;BME280;32503;47.748;8.960;2023-02-13T00:14:48;98706.38;;;4.50;66.17
3150;BME280;32503;47.748;8.960;2023-02-13T00:17:15;98696.44;;;4.30;66.46
3150;BME280;32503;47.748;8.960;2023-02-13T00:19:42;98701.81;;;4.30;66.57
3150;BME280;32503;47.748;8.960;2023-02-13T00:22:09;98712.50;;;4.30;66.62
3150;BME280;32503;47.748;8.960;2023-02-13T00:24:36;98709.03;;;4.30;66.19
3150;BME280;32503;47.748;8.960;2023-02-13T00:27:03;98698.31;;;4.14;66.16
3150;BME280;32503;47.748;8.960;2023-02-13T00:29:32;98703.66;;;4.14;66.27
3150;BME280;32503;47.748;8.960;2023-02-13T00:31:59;98711.97;;;4.08;66.54
3150;BME280;32503;47.748;8.960;2023-02-13T00:34:26;98707.41;;;3.93;66.90
3150;BME280;32503;47.748;8.960;2023-02-13T00:36:53;98702.56;;;3.90;66.81
3150;BME280;32503;47.748;8.960;2023-02-13T00:39:20;98708.47;;;3.87;66.78
3150;BME280;32503;47.748;8.960;2023-02-13T00:41:47;98709.25;;;3.82;66.73
3150;BME280;32503;47.748;8.960;2023-02-13T00:44:14;98706.56;;;3.72;67.20
3150;BME280;32503;47.748;8.960;2023-02-13T00:46:43;98704.44;;;3.79;67.23
3150;BME280;32503;47.748;8.960;2023-02-13T00:49:10;98704.41;;;3.74;66.83
3150;BME280;32503;47.748;8.960;2023-02-13T00:51:37;98708.44;;;3.76;66.87
3150;BME280;32503;47.748;8.960;2023-02-13T00:54:04;98712.16;;;3.70;67.05
3150;BME280;32503;47.748;8.960;2023-02-13T00:56:32;98711.66;;;3.73;67.27
3150;BME280;32503;47.748;8.960;2023-02-13T00:58:59;98706.28;;;3.73;67.66
3150;BME280;32503;47.748;8.960;2023-02-13T01:01:26;98718.34;;;3.71;67.55
3150;BME280;32503;47.748;8.960;2023-02-13T01:03:54;98720.47;;;3.74;67.63
3150;BME280;32503;47.748;8.960;2023-02-13T01:06:21;98714.06;;;3.80;67.25
3150;BME280;32503;47.748;8.960;2023-02-13T01:08:48;98707.34;;;3.72;67.46
3150;BME280;32503;47.748;8.960;2023-02-13T01:11:15;98714.88;;;3.80;67.47
3150;BME280;32503;47.748;8.960;2023-02-13T01:13:44;98718.06;;;3.83;67.59
3150;BME280;32503;47.748;8.960;2023-02-13T01:16:11;98707.66;;;3.76;67.68
3150;BME280;32503;47.748;8.960;2023-02-13T01:18:40;98718.34;;;3.86;67.70
3150;BME280;32503;47.748;8.960;2023-02-13T01:21:21;98719.19;;;3.87;67.87
3150;BME280;32503;47.748;8.960;2023-02-13T01:23:49;98717.06;;;3.99;67.56
3150;BME280;32503;47.748;8.960;2023-02-13T01:26:20;98718.91;;;3.98;67.73
3150;BME280;32503;47.748;8.960;2023-02-13T01:28:50;98722.13;;;4.01;67.91
3150;BME280;32503;47.748;8.960;2023-02-13T01:31:17;98728.84;;;4.08;67.76
3150;BME280;32503;47.748;8.960;2023-02-13T01:33:44;98720.53;;;4.05;67.99
3150;BME280;32503;47.748;8.960;2023-02-13T01:36:13;98720.28;;;4.11;68.18
3150;BME280;32503;47.748;8.960;2023-02-13T01:38:40;98725.63;;;4.11;68.74
3150;BME280;32503;47.748;8.960;2023-02-13T01:41:08;98726.44;;;4.17;69.18
3150;BME280;32503;47.748;8.960;2023-02-13T01:43:49;98721.38;;;4.26;69.46
3150;BME280;32503;47.748;8.960;2023-02-13T01:46:23;98728.84;;;4.34;69.80
3150;BME280;32503;47.748;8.960;2023-02-13T01:48:57;98726.16;;;4.34;69.43
3150;BME280;32503;47.748;8.960;2023-02-13T01:51:30;98727.25;;;4.43;69.66
3150;BME280;32503;47.748;8.960;2023-02-13T01:54:03;98724.03;;;4.41;69.50
3150;BME280;32503;47.748;8.960;2023-02-13T01:56:35;98729.94;;;4.48;69.32
3150;BME280;32503;47.748;8.960;2023-02-13T01:59:12;98733.16;;;4.50;69.31
3150;BME280;32503;47.748;8.960;2023-02-13T02:01:41;98724.31;;;4.45;69.12
3150;BME280;32503;47.748;8.960;2023-02-13T02:04:11;98731.00;;;4.47;69.19
3150;BME280;32503;47.748;8.960;2023-02-13T02:06:47;98732.88;;;4.47;69.07
3150;BME280;32503;47.748;8.960;2023-02-13T02:09:19;98735.84;;;4.55;68.87
3150;BME280;32503;47.748;8.960;2023-02-13T02:11:58;98740.63;;;4.53;68.72
3150;BME280;32503;47.748;8.960;2023-02-13T02:14:27;98728.31;;;4.47;68.33
3150;BME280;32503;47.748;8.960;2023-02-13T02:16:55;98742.78;;;4.51;68.88
3150;BME280;32503;47.748;8.960;2023-02-13T02:19:35;98741.72;;;4.52;68.58
3150;BME280;32503;47.748;8.960;2023-02-13T02:22:59;98742.25;;;4.49;68.68
3150;BME280;32503;47.748;8.960;2023-02-13T02:29:17;98743.59;;;4.52;68.72
3150;BME280;32503;47.748;8.960;2023-02-13T02:32:13;98748.66;;;4.53;68.69
3150;BME280;32503;47.748;8.960;2023-02-13T02:34:53;98746.56;;;4.55;68.63
3150;BME280;32503;47.748;8.960;2023-02-13T02:37:39;98746.00;;;4.53;68.51
3150;BME280;32503;47.748;8.960;2023-02-13T02:40:23;98743.31;;;4.53;68.78
3150;BME280;32503;47.748;8.960;2023-02-13T02:43:05;98738.78;;;4.59;68.43
3150;BME280;32503;47.748;8.960;2023-02-13T02:45:39;98744.41;;;4.63;69.19
3150;BME280;32503;47.748;8.960;2023-02-13T02:48:22;98744.94;;;4.65;68.96
3150;BME280;32503;47.748;8.960;2023-02-13T02:51:19;98739.56;;;4.65;68.80
3150;BME280;32503;47.748;8.960;2023-02-13T02:53:55;98735.00;;;4.60;68.99
3150;BME280;32503;47.748;8.960;2023-02-13T02:56:28;98745.47;;;4.72;68.76
3150;BME280;32503;47.748;8.960;2023-02-13T02:59:02;98739.03;;;4.73;69.80
3150;BME280;32503;47.748;8.960;2023-02-13T03:01:48;98742.78;;;4.77;69.10
3150;BME280;32503;47.748;8.960;2023-02-13T03:04:38;98747.59;;;4.75;69.49
3150;BME280;32503;47.748;8.960;2023-02-13T03:07:23;98743.03;;;4.65;69.17
3150;BME280;32503;47.748;8.960;2023-02-13T03:09:55;98750.56;;;4.68;69.42
3150;BME280;32503;47.748;8.960;2023-02-13T03:12:46;98745.47;;;4.62;69.63
3150;BME280;32503;47.748;8.960;2023-02-13T03:15:37;98743.88;;;4.61;69.71
3150;BME280;32503;47.748;8.960;2023-02-13T03:18:25;98748.66;;;4.64;69.74
3150;BME280;32503;47.748;8.960;2023-02-13T03:21:16;98757.25;;;4.55;70.04
3150;BME280;32503;47.748;8.960;2023-02-13T03:24:09;98750.28;;;4.54;70.39
3150;BME280;32503;47.748;8.960;2023-02-13T03:26:47;98758.84;;;4.56;70.61
3150;BME280;32503;47.748;8.960;2023-02-13T03:29:32;98760.75;;;4.61;70.71
3150;BME280;32503;47.748;8.960;2023-02-13T03:32:27;98757.81;;;4.63;70.36
3150;BME280;32503;47.748;8.960;2023-02-13T03:35:13;98755.66;;;4.70;70.71
3150;BME280;32503;47.748;8.960;2023-02-13T03:38:07;98748.41;;;4.70;70.35
3150;BME280;32503;47.748;8.960;2023-02-13T03:40:45;98763.69;;;4.80;70.16
3150;BME280;32503;47.748;8.960;2023-02-13T03:43:38;98762.06;;;4.79;70.48
3150;BME280;32503;47.748;8.960;2023-02-13T03:46:09;98762.06;;;4.79;70.29
3150;BME280;32503;47.748;8.960;2023-02-13T03:48:38;98767.94;;;4.81;70.47
3150;BME280;32503;47.748;8.960;2023-02-13T03:51:29;98771.72;;;4.75;70.42
3150;BME280;32503;47.748;8.960;2023-02-13T03:54:03;98779.22;;;4.73;71.15
3150;BME280;32503;47.748;8.960;2023-02-13T03:56:33;98778.16;;;4.74;71.11
3150;BME280;32503;47.748;8.960;2023-02-13T03:59:22;98778.16;;;4.74;71.10
3150;BME280;32503;47.748;8.960;2023-02-13T04:01:57;98785.66;;;4.77;71.09
3150;BME280;32503;47.748;8.960;2023-02-13T04:04:34;98774.41;;;4.75;70.87
3150;BME280;32503;47.748;8.960;2023-02-13T04:07:08;98777.09;;;4.75;71.39
3150;BME280;32503;47.748;8.960;2023-02-13T04:09:40;98786.44;;;4.72;71.92
3150;BME280;32503;47.748;8.960;2023-02-13T04:12:13;98786.97;;;4.80;71.76
3150;BME280;32503;47.748;8.960;2023-02-13T04:14:48;98786.97;;;4.85;71.50
3150;BME280;32503;47.748;8.960;2023-02-13T04:17:20;98788.88;;;4.89;71.57
3150;BME280;32503;47.748;8.960;2023-02-13T04:19:50;98788.06;;;4.84;71.64
3150;BME280;32503;47.748;8.960;2023-02-13T04:22:17;98793.16;;;4.85;71.54
3150;BME280;32503;47.748;8.960;2023-02-13T04:24:45;98793.16;;;4.85;72.07
3150;BME280;32503;47.748;8.960;2023-02-13T04:27:13;98792.34;;;4.85;71.67
3150;BME280;32503;47.748;8.960;2023-02-13T04:29:41;98784.56;;;4.83;71.68
3150;BME280;32503;47.748;8.960;2023-02-13T04:32:09;98795.53;;;4.97;71.78
3150;BME280;32503;47.748;8.960;2023-02-13T04:34:37;98791.81;;;4.98;71.41
3150;BME280;32503;47.748;8.960;2023-02-13T04:37:04;98791.28;;;5.01;71.44
3150;BME280;32503;47.748;8.960;2023-02-13T04:39:32;98800.63;;;5.04;71.16
3150;BME280;32503;47.748;8.960;2023-02-13T04:42:00;98793.13;;;5.06;71.54
3150;BME280;32503;47.748;8.960;2023-02-13T04:44:27;98798.47;;;5.06;71.32
3150;BME280;32503;47.748;8.960;2023-02-13T04:46:54;98793.66;;;5.03;71.72
3150;BME280;32503;47.748;8.960;2023-02-13T04:49:21;98797.44;;;5.02;71.93
3150;BME280;32503;47.748;8.960;2023-02-13T04:51:48;98807.63;;;5.05;71.71
3150;BME280;32503;47.748;8.960;2023-02-13T04:54:15;98803.31;;;5.04;71.48
3150;BME280;32503;47.748;8.960;2023-02-13T04:56:42;98806.78;;;5.09;71.36
3150;BME280;32503;47.748;8.960;2023-02-13T05:01:22;98806.53;;;5.11;71.29
3150;BME280;32503;47.748;8.960;2023-02-13T05:03:49;98798.22;;;5.12;71.30
3150;BME280;32503;47.748;8.960;2023-02-13T05:06:16;98795.25;;;5.14;71.40
3150;BME280;32503;47.748;8.960;2023-02-13T05:08:43;98783.50;;;5.05;71.53
3150;BME280;32503;47.748;8.960;2023-02-13T05:11:10;98786.69;;;5.12;71.47
3150;BME280;32503;47.748;8.960;2023-02-13T05:13:37;98792.84;;;5.12;71.22
3150;BME280;32503;47.748;8.960;2023-02-13T05:16:05;98791.50;;;5.15;71.39
3150;BME280;32503;47.748;8.960;2023-02-13T05:18:33;98793.91;;;5.17;71.25
3150;BME280;32503;47.748;8.960;2023-02-13T05:21:00;98796.84;;;5.20;71.03
3150;BME280;32503;47.748;8.960;2023-02-13T05:23:45;98795.78;;;5.21;71.02
3150;BME280;32503;47.748;8.960;2023-02-13T05:26:12;98796.31;;;5.23;70.84
3150;BME280;32503;47.748;8.960;2023-02-13T05:28:39;98802.47;;;5.29;70.79
3150;BME280;32503;47.748;8.960;2023-02-13T05:31:24;98804.34;;;5.34;70.71
3150;BME280;32503;47.748;8.960;2023-02-13T05:33:52;98808.63;;;5.35;70.86
3150;BME280;32503;47.748;8.960;2023-02-13T05:36:19;98815.06;;;5.34;70.52
3150;BME280;32503;47.748;8.960;2023-02-13T05:38:46;98813.44;;;5.38;71.12
3150;BME280;32503;47.748;8.960;2023-02-13T05:41:13;98813.44;;;5.38;70.88
3150;BME280;32503;47.748;8.960;2023-02-13T05:43:40;98806.22;;;5.33;70.71
3150;BME280;32503;47.748;8.960;2023-02-13T05:46:08;98811.28;;;5.35;70.95
3150;BME280;32503;47.748;8.960;2023-02-13T05:48:36;98810.78;;;5.32;70.80
3150;BME280;32503;47.748;8.960;2023-02-13T05:51:04;98805.97;;;5.29;70.71
3150;BME280;32503;47.748;8.960;2023-02-13T05:53:32;98816.91;;;5.38;70.45
3150;BME280;32503;47.748;8.960;2023-02-13T05:56:00;98821.47;;;5.43;70.77
3150;BME280;32503;47.748;8.960;2023-02-13T05:58:28;98814.53;;;5.42;70.48
3150;BME280;32503;47.748;8.960;2023-02-13T06:00:56;98816.13;;;5.38;70.72
3150;BME280;32503;47.748;8.960;2023-02-13T06:03:24;98813.16;;;5.39;70.73
3150;BME280;32503;47.748;8.960;2023-02-13T06:05:51;98808.59;;;5.40;70.35
3150;BME280;32503;47.748;8.960;2023-02-13T06:08:19;98805.91;;;5.40;70.61
3150;BME280;32503;47.748;8.960;2023-02-13T06:10:47;98802.97;;;5.36;70.62
3150;BME280;32503;47.748;8.960;2023-02-13T06:13:15;98808.88;;;5.38;70.42
3150;BME280;32503;47.748;8.960;2023-02-13T06:15:43;98808.88;;;5.38;70.22
3150;BME280;32503;47.748;8.960;2023-02-13T06:18:10;98813.97;;;5.40;70.60
3150;BME280;32503;47.748;8.960;2023-02-13T06:20:38;98808.88;;;5.38;70.20
3150;BME280;32503;47.748;8.960;2023-02-13T06:23:05;98815.59;;;5.41;70.55
3150;BME280;32503;47.748;8.960;2023-02-13T06:25:35;98802.97;;;5.36;70.18
3150;BME280;32503;47.748;8.960;2023-02-13T06:28:03;98813.16;;;5.44;70.54
3150;BME280;32503;47.748;8.960;2023-02-13T06:30:31;98821.47;;;5.48;69.68
3150;BME280;32503;47.748;8.960;2023-02-13T06:32:58;98820.41;;;5.49;70.24
3150;BME280;32503;47.748;8.960;2023-02-13T06:35:26;98818.00;;;5.47;70.11
3150;BME280;32503;47.748;8.960;2023-02-13T06:37:53;98820.41;;;5.44;70.05
3150;BME280;32503;47.748;8.960;2023-02-13T06:40:20;98817.22;;;5.42;69.68
3150;BME280;32503;47.748;8.960;2023-02-13T06:42:49;98818.81;;;5.38;70.32
3150;BME280;32503;47.748;8.960;2023-02-13T06:45:16;98824.72;;;5.35;70.12
3150;BME280;32503;47.748;8.960;2023-02-13T06:47:44;98825.28;;;5.31;70.08
3150;BME280;32503;47.748;8.960;2023-02-13T06:50:18;98825.53;;;5.30;70.24
3150;BME280;32503;47.748;8.960;2023-02-13T06:52:46;98832.75;;;5.35;70.31
3150;BME280;32503;47.748;8.960;2023-02-13T06:55:14;98835.16;;;5.36;69.71
3150;BME280;32503;47.748;8.960;2023-02-13T06:57:41;98834.91;;;5.38;69.96
3150;BME280;32503;47.748;8.960;2023-02-13T07:00:12;98820.19;;;5.30;69.99
3150;BME280;32503;47.748;8.960;2023-02-13T07:02:41;98832.75;;;5.35;70.22
3150;BME280;32503;47.748;8.960;2023-02-13T07:05:09;98837.06;;;5.36;70.00
3150;BME280;32503;47.748;8.960;2023-02-13T07:07:37;98834.91;;;5.32;70.11
3150;BME280;32503;47.748;8.960;2023-02-13T07:10:07;98838.94;;;5.35;69.81
3150;BME280;32503;47.748;8.960;2023-02-13T07:12:35;98837.31;;;5.34;69.84
3150;BME280;32503;47.748;8.960;2023-02-13T07:15:03;98842.16;;;5.37;70.01
3150;BME280;32503;47.748;8.960;2023-02-13T07:17:31;98846.97;;;5.40;69.92
3150;BME280;32503;47.748;8.960;2023-02-13T07:19:59;98844.56;;;5.39;69.83
3150;BME280;32503;47.748;8.960;2023-02-13T07:22:26;98849.41;;;5.42;69.52
3150;BME280;32503;47.748;8.960;2023-02-13T07:24:53;98849.38;;;5.47;69.50
3150;BME280;32503;47.748;8.960;2023-02-13T07:27:20;98849.94;;;5.44;69.43
3150;BME280;32503;47.748;8.960;2023-02-13T07:29:47;98844.81;;;5.42;70.08
3150;BME280;32503;47.748;8.960;2023-02-13T07:32:14;98864.66;;;5.46;69.94
3150;BME280;32503;47.748;8.960;2023-02-13T07:34:42;98854.19;;;5.45;69.93
3150;BME280;32503;47.748;8.960;2023-02-13T07:37:09;98855.81;;;5.51;69.69
3150;BME280;32503;47.748;8.960;2023-02-13T07:39:37;98861.69;;;5.53;69.48
3150;BME280;32503;47.748;8.960;2023-02-13T07:42:05;98862.22;;;5.55;69.83
3150;BME280;32503;47.748;8.960;2023-02-13T07:44:32;98857.66;;;5.50;69.83
3150;BME280;32503;47.748;8.960;2023-02-13T07:46:59;98862.50;;;5.54;69.12
3150;BME280;32503;47.748;8.960;2023-02-13T07:49:26;98862.50;;;5.54;69.80
3150;BME280;32503;47.748;8.960;2023-02-13T07:51:56;98865.19;;;5.54;69.50
3150;BME280;32503;47.748;8.960;2023-02-13T07:54:24;98857.97;;;5.54;69.48
3150;BME280;32503;47.748;8.960;2023-02-13T07:56:51;98859.56;;;5.55;69.85
3150;BME280;32503;47.748;8.960;2023-02-13T07:59:18;98866.00;;;5.54;69.07
3150;BME280;32503;47.748;8.960;2023-02-13T08:01:45;98864.66;;;5.57;69.88
3150;BME280;32503;47.748;8.960;2023-02-13T08:04:12;98865.19;;;5.59;69.29
3150;BME280;32503;47.748;8.960;2023-02-13T08:06:39;98870.78;;;5.62;69.28
3150;BME280;32503;47.748;8.960;2023-02-13T08:09:17;98865.16;;;5.64;69.76
3150;BME280;32503;47.748;8.960;2023-02-13T08:12:05;98862.22;;;5.60;69.67
3150;BME280;32503;47.748;8.960;2023-02-13T08:14:33;98858.47;;;5.61;69.16
3150;BME280;32503;47.748;8.960;2023-02-13T08:17:00;98875.38;;;5.67;69.69
3150;BME280;32503;47.748;8.960;2023-02-13T08:19:27;98875.09;;;5.68;68.93
3150;BME280;32503;47.748;8.960;2023-02-13T08:21:55;98872.41;;;5.74;69.35
3150;BME280;32503;47.748;8.960;2023-02-13T08:24:23;98861.34;;;5.75;69.42
3150;BME280;32503;47.748;8.960;2023-02-13T08:26:50;98868.34;;;5.81;68.89
3150;BME280;32503;47.748;8.960;2023-02-13T08:29:17;98876.91;;;5.83;69.23
3150;BME280;32503;47.748;8.960;2023-02-13T08:31:44;98873.69;;;5.81;69.18
3150;BME280;32503;47.748;8.960;2023-02-13T08:34:11;98876.13;;;5.83;68.80
3150;BME280;32503;47.748;8.960;2023-02-13T08:36:38;98882.56;;;5.82;68.57
3150;BME280;32503;47.748;8.960;2023-02-13T08:39:05;98877.44;;;5.85;68.90
3150;BME280;32503;47.748;8.960;2023-02-13T08:41:34;98880.38;;;5.89;68.46
3150;BME280;32503;47.748;8.960;2023-02-13T08:44:01;98879.84;;;5.92;68.59
3150;BME280;32503;47.748;8.960;2023-02-13T08:46:28;98882.25;;;5.94;68.28
3150;BME280;32503;47.748;8.960;2023-02-13T08:48:55;98880.91;;;5.96;68.88
3150;BME280;32503;47.748;8.960;2023-02-13T08:51:22;98884.16;;;5.98;68.51
3150;BME280;32503;47.748;8.960;2023-02-13T08:53:49;98887.91;;;6.02;68.74
3150;BME280;32503;47.748;8.960;2023-02-13T08:56:16;98873.34;;;6.08;68.47
3150;BME280;32503;47.748;8.960;2023-02-13T08:58:47;98879.81;;;6.13;68.76
3150;BME280;32503;47.748;8.960;2023-02-13T09:01:15;98865.31;;;6.03;68.40
3150;BME280;32503;47.748;8.960;2023-02-13T09:03:42;98883.03;;;6.10;68.17
3150;BME280;32503;47.748;8.960;2023-02-13T09:06:09;98883.00;;;6.15;68.58
3150;BME280;32503;47.748;8.960;2023-02-13T09:08:36;98886.75;;;6.14;67.75
3150;BME280;32503;47.748;8.960;2023-02-13T09:11:04;98874.69;;;6.11;68.26
3150;BME280;32503;47.748;8.960;2023-02-13T09:13:33;98871.47;;;6.14;68.22
3150;BME280;32503;47.748;8.960;2023-02-13T09:16:06;98881.91;;;6.21;68.53
3150;BME280;32503;47.748;8.960;2023-02-13T09:18:33;98875.44;;;6.22;68.30
3150;BME280;32503;47.748;8.960;2023-02-13T09:21:03;98875.19;;;6.23;68.30
3150;BME280;32503;47.748;8.960;2023-02-13T09:23:32;98878.09;;;6.32;67.69
3150;BME280;32503;47.748;8.960;2023-02-13T09:25:59;98877.53;;;6.35;67.96
3150;BME280;32503;47.748;8.960;2023-02-13T09:28:28;98883.19;;;6.39;68.13
3150;BME280;32503;47.748;8.960;2023-02-13T09:30:55;98881.25;;;6.44;67.41
3150;BME280;32503;47.748;8.960;2023-02-13T09:33:24;98884.47;;;6.47;67.18
3150;BME280;32503;47.748;8.960;2023-02-13T09:35:52;98883.38;;;6.48;67.61
3150;BME280;32503;47.748;8.960;2023-02-13T09:38:19;98887.44;;;6.45;67.19
3150;BME280;32503;47.748;8.960;2023-02-13T09:40:50;98883.38;;;6.48;67.50
3150;BME280;32503;47.748;8.960;2023-02-13T09:43:26;98885.50;;;6.51;67.66
3150;BME280;32503;47.748;8.960;2023-02-13T09:45:57;98889.78;;;6.57;66.99
3150;BME280;32503;47.748;8.960;2023-02-13T09:48:30;98880.63;;;6.58;67.30
3150;BME280;32503;47.748;8.960;2023-02-13T09:50:59;98884.06;;;6.63;67.14
3150;BME280;32503;47.748;8.960;2023-02-13T09:53:28;98882.69;;;6.71;67.46
3150;BME280;32503;47.748;8.960;2023-02-13T09:56:05;98887.53;;;6.74;67.10
3150;BME280;32503;47.748;8.960;2023-02-13T09:58:42;98882.16;;;6.74;66.45
3150;BME280;32503;47.748;8.960;2023-02-13T10:01:21;98877.28;;;6.76;66.56
3150;BME280;32503;47.748;8.960;2023-02-13T10:04:24;98882.13;;;6.79;67.10
3150;BME280;32503;47.748;8.960;2023-02-13T10:07:09;98887.50;;;6.79;66.64
3150;BME280;32503;47.748;8.960;2023-02-13T10:09:45;98880.50;;;6.78;65.93
3150;BME280;32503;47.748;8.960;2023-02-13T10:12:45;98880.50;;;6.78;65.67
3150;BME280;32503;47.748;8.960;2023-02-13T10:15:24;98886.94;;;6.77;65.85
3150;BME280;32503;47.748;8.960;2023-02-13T10:17:57;98879.13;;;6.81;65.85
3150;BME280;32503;47.748;8.960;2023-02-13T10:20:31;98886.88;;;6.88;65.74
3150;BME280;32503;47.748;8.960;2023-02-13T10:23:21;98883.91;;;6.89;65.84
3150;BME280;32503;47.748;8.960;2023-02-13T10:25:56;98878.25;;;6.91;65.91
3150;BME280;32503;47.748;8.960;2023-02-13T10:28:32;98880.13;;;6.95;65.11
3150;BME280;32503;47.748;8.960;2023-02-13T10:31:04;98874.97;;;6.99;65.47
3150;BME280;32503;47.748;8.960;2023-02-13T10:33:40;98868.47;;;7.05;65.20
3150;BME280;32503;47.748;8.960;2023-02-13T10:36:17;98874.06;;;7.09;64.92
3150;BME280;32503;47.748;8.960;2023-02-13T10:38:55;98880.25;;;7.09;65.46
3150;BME280;32503;47.748;8.960;2023-02-13T10:41:33;98868.94;;;7.12;65.30
3150;BME280;32503;47.748;8.960;2023-02-13T10:44:26;98868.47;;;7.05;64.82
3150;BME280;32503;47.748;8.960;2023-02-13T10:47:09;98860.66;;;7.03;64.26
3150;BME280;32503;47.748;8.960;2023-02-13T10:49:54;98858.31;;;6.97;64.61
3150;BME280;32503;47.748;8.960;2023-02-13T10:52:36;98861.16;;;6.76;65.02
3150;BME280;32503;47.748;8.960;2023-02-13T10:55:18;98857.31;;;6.88;64.93
3150;BME280;32503;47.748;8.960;2023-02-13T10:58:05;98854.91;;;6.47;64.89
3150;BME280;32503;47.748;8.960;2023-02-13T11:00:36;98850.03;;;6.54;65.36
3150;BME280;32503;47.748;8.960;2023-02-13T11:03:04;98857.63;;;6.41;64.91
3150;BME280;32503;47.748;8.960;2023-02-13T11:05:36;98852.50;;;6.45;65.43
3150;BME280;32503;47.748;8.960;2023-02-13T11:08:17;98852.19;;;6.52;65.82
3150;BME280;32503;47.748;8.960;2023-02-13T11:10:46;98840.69;;;6.46;66.17
3150;BME280;32503;47.748;8.960;2023-02-13T11:13:19;98838.75;;;6.52;65.82
3150;BME280;32503;47.748;8.960;2023-02-13T11:16:02;98836.25;;;6.66;65.21
3150;BME280;32503;47.748;8.960;2023-02-13T11:18:32;98839.97;;;6.70;64.22
3150;BME280;32503;47.748;8.960;2023-02-13T11:21:06;98839.00;;;6.55;64.87
3150;BME280;32503;47.748;8.960;2023-02-13T11:23:39;98836.75;;;6.68;64.68
3150;BME280;32503;47.748;8.960;2023-02-13T11:26:11;98825.75;;;6.64;64.52
3150;BME280;32503;47.748;8.960;2023-02-13T11:28:48;98838.75;;;6.86;64.71
3150;BME280;32503;47.748;8.960;2023-02-13T11:31:27;98847.06;;;6.90;64.55
3150;BME280;32503;47.748;8.960;2023-02-13T11:33:55;98836.78;;;6.97;63.94
3150;BME280;32503;47.748;8.960;2023-02-13T11:36:26;98844.25;;;7.05;63.87
3150;BME280;32503;47.748;8.960;2023-02-13T11:39:00;98837.81;;;7.06;63.32
3150;BME280;32503;47.748;8.960;2023-02-13T11:41:29;98831.88;;;7.04;63.24
3150;BME280;32503;47.748;8.960;2023-02-13T11:43:59;98835.63;;;7.08;63.51
3150;BME280;32503;47.748;8.960;2023-02-13T11:46:28;98831.19;;;7.22;63.00
3150;BME280;32503;47.748;8.960;2023-02-13T11:49:01;98830.03;;;7.29;63.33
3150;BME280;32503;47.748;8.960;2023-02-13T11:51:37;98826.28;;;7.30;62.91
3150;BME280;32503;47.748;8.960;2023-02-13T11:54:23;98834.56;;;7.33;62.71
3150;BME280;32503;47.748;8.960;2023-02-13T11:56:54;98824.78;;;7.18;63.05
3150;BME280;32503;47.748;8.960;2023-02-13T11:59:23;98826.59;;;7.23;63.58
3150;BME280;32503;47.748;8.960;2023-02-13T12:02:14;98820.19;;;7.19;63.09
3150;BME280;32503;47.748;8.960;2023-02-13T12:04:42;98822.03;;;7.24;63.50
3150;BME280;32503;47.748;8.960;2023-02-13T12:07:18;98827.31;;;7.34;63.13
3150;BME280;32503;47.748;8.960;2023-02-13T12:09:50;98824.06;;;7.37;62.79
3150;BME280;32503;47.748;8.960;2023-02-13T12:12:31;98812.25;;;7.33;62.70
3150;BME280;32503;47.748;8.960;2023-02-13T12:15:09;98821.06;;;7.38;62.47
3150;BME280;32503;47.748;8.960;2023-02-13T12:17:42;98820.22;;;7.43;62.75
3150;BME280;32503;47.748;8.960;2023-02-13T12:20:13;98815.31;;;7.50;62.42
3150;BME280;32503;47.748;8.960;2023-02-13T12:22:54;98820.00;;;7.64;61.87
3150;BME280;32503;47.748;8.960;2023-02-13T12:25:47;98815.16;;;7.60;61.79
3150;BME280;32503;47.748;8.960;2023-02-13T12:28:25;98811.97;;;7.58;61.61
3150;BME280;32503;47.748;8.960;2023-02-13T12:31:22;98809.41;;;7.48;61.50
3150;BME280;32503;47.748;8.960;2023-02-13T12:34:16;98804.81;;;7.49;61.99
3150;BME280;32503;47.748;8.960;2023-02-13T12:37:02;98806.59;;;7.58;61.93
3150;BME280;32503;47.748;8.960;2023-02-13T12:39:35;98803.31;;;7.62;61.68
3150;BME280;32503;47.748;8.960;2023-02-13T12:42:27;98804.56;;;7.69;61.43
3150;BME280;32503;47.748;8.960;2023-02-13T12:45:15;98803.84;;;7.64;61.68
3150;BME280;32503;47.748;8.960;2023-02-13T12:48:08;98799.38;;;7.54;61.10
3150;BME280;32503;47.748;8.960;2023-02-13T12:50:50;98801.72;;;7.36;61.82
3150;BME280;32503;47.748;8.960;2023-02-13T12:53:58;98789.34;;;7.35;61.67
3150;BME280;32503;47.748;8.960;2023-02-13T12:56:41;98776.22;;;7.29;61.60
3150;BME280;32503;47.748;8.960;2023-02-13T12:59:22;98792.59;;;7.32;61.56
3150;BME280;32503;47.748;8.960;2023-02-13T13:02:28;98788.00;;;7.38;62.10
3150;BME280;32503;47.748;8.960;2023-02-13T13:05:13;98793.88;;;7.40;61.44
3150;BME280;32503;47.748;8.960;2023-02-13T13:07:57;98767.53;;;7.37;61.55
3150;BME280;32503;47.748;8.960;2023-02-13T13:10:44;98783.41;;;7.63;61.93
3150;BME280;32503;47.748;8.960;2023-02-13T13:13:22;98787.56;;;7.74;61.07
3150;BME280;32503;47.748;8.960;2023-02-13T13:16:02;98789.75;;;7.72;61.14
3150;BME280;32503;47.748;8.960;2023-02-13T13:18:44;98778.34;;;7.80;60.49
3150;BME280;32503;47.748;8.960;2023-02-13T13:21:29;98782.06;;;7.84;60.72
3150;BME280;32503;47.748;8.960;2023-02-13T13:24:03;98746.00;;;7.61;61.23
3150;BME280;32503;47.748;8.960;2023-02-13T13:26:35;98763.78;;;7.81;61.23
3150;BME280;32503;47.748;8.960;2023-02-13T13:29:09;98778.50;;;8.08;60.85
3150;BME280;32503;47.748;8.960;2023-02-13T13:31:40;98772.19;;;8.18;60.93
3150;BME280;32503;47.748;8.960;2023-02-13T13:34:15;98774.53;;;8.24;60.69
3150;BME280;32503;47.748;8.960;2023-02-13T13:36:47;98774.94;;;8.31;60.62
3150;BME280;32503;47.748;8.960;2023-02-13T13:39:30;98781.03;;;8.42;59.87
3150;BME280;32503;47.748;8.960;2023-02-13T13:42:07;98756.59;;;8.33;60.23
3150;BME280;32503;47.748;8.960;2023-02-13T13:45:17;98767.69;;;8.51;59.39
3150;BME280;32503;47.748;8.960;2023-02-13T13:50:56;98771.88;;;8.57;59.16
3150;BME280;32503;47.748;8.960;2023-02-13T13:53:24;98767.53;;;8.61;59.41
3150;BME280;32503;47.748;8.960;2023-02-13T13:56:04;98760.72;;;8.64;59.13
3150;BME280;32503;47.748;8.960;2023-02-13T13:58:43;98763.72;;;8.62;59.03
3150;BME280;32503;47.748;8.960;2023-02-13T14:01:23;98772.91;;;8.61;59.13
3150;BME280;32503;47.748;8.960;2023-02-13T14:03:53;98771.22;;;8.65;58.64